createdAt,value
2022-11-30T00:01:12.638Z,6.40
2022-11-30T00:03:39.396Z,6.40
2022-11-30T00:06:12.451Z,6.40
2022-11-30T00:08:39.407Z,6.40
2022-11-30T00:11:14.739Z,6.40
2022-11-30T00:13:41.915Z,6.40
2022-11-30T00:16:08.941Z,6.40
2022-11-30T00:18:36.622Z,6.40
2022-11-30T00:21:06.168Z,6.20
2022-11-30T00:23:34.163Z,6.20
2022-11-30T00:26:05.693Z,6.00
2022-11-30T00:28:33.124Z,6.10
2022-11-30T00:31:01.769Z,6.10
2022-11-30T00:33:29.309Z,6.10
2022-11-30T00:36:01.370Z,6.00
2022-11-30T00:38:28.593Z,5.90
2022-11-30T00:40:56.536Z,6.00
2022-11-30T00:43:23.411Z,5.90
2022-11-30T00:45:50.241Z,5.80
2022-11-30T00:48:17.084Z,5.90
2022-11-30T00:50:43.872Z,6.00
2022-11-30T00:53:10.662Z,6.10
2022-11-30T00:55:37.325Z,6.00
2022-11-30T00:58:04.292Z,6.10
2022-11-30T01:00:30.946Z,6.10
2022-11-30T01:02:59.327Z,6.10
2022-11-30T01:05:26.346Z,6.20
2022-11-30T01:07:53.134Z,6.20
2022-11-30T01:10:19.869Z,6.20
2022-11-30T01:12:46.545Z,6.30
2022-11-30T01:15:13.180Z,6.30
2022-11-30T01:17:39.925Z,6.30
2022-11-30T01:20:08.064Z,6.30
2022-11-30T01:22:35.055Z,6.30
2022-11-30T01:25:01.851Z,6.30
2022-11-30T01:27:28.544Z,6.30
2022-11-30T01:29:55.209Z,6.00
2022-11-30T01:32:22.057Z,5.80
2022-11-30T01:34:48.961Z,6.00
2022-11-30T01:37:15.832Z,6.00
2022-11-30T01:39:42.517Z,6.10
2022-11-30T01:42:17.604Z,6.00
2022-11-30T01:45:00.971Z,6.10
2022-11-30T01:47:39.177Z,5.90
2022-11-30T01:50:20.759Z,6.00
2022-11-30T01:52:51.772Z,6.00
2022-11-30T01:55:31.445Z,6.10
2022-11-30T01:58:03.777Z,6.00
2022-11-30T02:00:30.459Z,5.90
2022-11-30T02:03:00.752Z,6.00
2022-11-30T02:05:28.018Z,6.00
2022-11-30T02:07:55.228Z,6.00
2022-11-30T02:10:27.388Z,6.10
2022-11-30T02:12:53.990Z,6.20
2022-11-30T02:15:27.092Z,6.20
2022-11-30T02:18:08.226Z,6.20
2022-11-30T02:20:43.862Z,6.20
2022-11-30T02:23:41.583Z,6.20
2022-11-30T02:26:34.375Z,6.20
2022-11-30T02:29:08.113Z,6.30
2022-11-30T02:31:52.530Z,6.20
2022-11-30T02:34:22.197Z,6.20
2022-11-30T02:36:49.361Z,6.20
2022-11-30T02:39:17.085Z,6.30
2022-11-30T02:41:45.784Z,6.20
2022-11-30T02:44:13.412Z,6.20
2022-11-30T02:46:59.570Z,6.20
2022-11-30T02:49:45.193Z,6.20
2022-11-30T02:52:14.293Z,6.10
2022-11-30T02:54:41.076Z,6.20
2022-11-30T02:57:08.093Z,6.20
2022-11-30T02:59:35.242Z,6.10
2022-11-30T03:02:02.026Z,6.10
2022-11-30T03:04:28.803Z,6.10
2022-11-30T03:06:55.522Z,6.20
2022-11-30T03:09:22.384Z,6.20
2022-11-30T03:11:49.053Z,6.20
2022-11-30T03:14:15.790Z,6.30
2022-11-30T03:16:44.075Z,6.30
2022-11-30T03:19:10.788Z,6.30
2022-11-30T03:21:37.472Z,6.30
2022-11-30T03:24:04.329Z,6.30
2022-11-30T03:26:30.959Z,6.30
2022-11-30T03:28:57.669Z,6.40
2022-11-30T03:31:24.367Z,6.40
2022-11-30T03:33:51.088Z,6.40
2022-11-30T03:36:17.795Z,6.40
2022-11-30T03:38:44.487Z,6.40
2022-11-30T03:41:14.184Z,6.40
2022-11-30T03:43:41.120Z,6.40
2022-11-30T03:46:08.244Z,6.40
2022-11-30T03:48:36.077Z,6.40
2022-11-30T03:51:04.247Z,6.40
2022-11-30T03:53:31.651Z,6.40
2022-11-30T03:56:00.778Z,6.40
2022-11-30T03:58:27.806Z,6.40
2022-11-30T04:01:01.662Z,6.40
2022-11-30T04:03:29.341Z,6.40
2022-11-30T04:05:56.827Z,6.40
2022-11-30T04:09:07.097Z,6.40
2022-11-30T04:11:33.828Z,6.50
2022-11-30T04:14:00.482Z,6.40
2022-11-30T04:16:27.290Z,6.40
2022-11-30T04:18:54.018Z,6.40
2022-11-30T04:21:20.649Z,6.40
2022-11-30T04:23:47.302Z,6.40
2022-11-30T04:26:16.280Z,6.30
2022-11-30T04:28:43.344Z,6.30
2022-11-30T04:31:10.489Z,6.30
2022-11-30T04:33:37.190Z,6.40
2022-11-30T04:36:06.773Z,6.30
2022-11-30T04:38:35.967Z,6.30
2022-11-30T04:41:07.868Z,6.30
2022-11-30T04:43:34.685Z,6.30
2022-11-30T04:46:01.328Z,6.30
2022-11-30T04:48:28.043Z,6.30
2022-11-30T04:50:54.705Z,6.30
2022-11-30T04:53:21.376Z,6.30
2022-11-30T04:55:48.012Z,6.30
2022-11-30T04:58:14.703Z,6.30
2022-11-30T05:00:41.384Z,6.30
2022-11-30T05:03:08.056Z,6.30
2022-11-30T05:05:34.730Z,6.30
2022-11-30T05:08:01.609Z,6.30
2022-11-30T05:10:28.686Z,6.40
2022-11-30T05:12:56.194Z,6.30
2022-11-30T05:15:22.919Z,6.30
2022-11-30T05:17:49.629Z,6.30
2022-11-30T05:20:16.490Z,6.40
2022-11-30T05:22:43.415Z,6.40
2022-11-30T05:25:10.586Z,6.30
2022-11-30T05:27:38.013Z,6.30
2022-11-30T05:30:05.722Z,6.30
2022-11-30T05:32:32.617Z,6.20
2022-11-30T05:34:59.537Z,6.20
2022-11-30T05:37:26.400Z,6.30
2022-11-30T05:39:53.093Z,6.30
2022-11-30T05:42:19.767Z,6.20
2022-11-30T05:44:47.752Z,6.20
2022-11-30T05:47:14.901Z,6.20
2022-11-30T05:49:41.579Z,6.20
2022-11-30T05:52:08.271Z,6.20
2022-11-30T05:54:35.162Z,6.10
2022-11-30T05:57:01.884Z,6.00
2022-11-30T05:59:28.552Z,6.10
2022-11-30T06:01:55.365Z,6.10
2022-11-30T06:04:22.477Z,6.10
2022-11-30T06:06:49.525Z,6.10
2022-11-30T06:09:16.421Z,6.10
2022-11-30T06:11:43.218Z,6.20
2022-11-30T06:14:09.888Z,6.20
2022-11-30T06:16:41.159Z,6.10
2022-11-30T06:19:07.847Z,6.10
2022-11-30T06:21:35.004Z,6.10
2022-11-30T06:24:01.678Z,6.20
2022-11-30T06:26:28.423Z,6.10
2022-11-30T06:28:55.071Z,6.20
2022-11-30T06:31:21.798Z,6.20
2022-11-30T06:33:49.054Z,6.20
2022-11-30T06:36:23.604Z,6.20
2022-11-30T06:38:51.135Z,6.30
2022-11-30T06:41:17.895Z,6.20
2022-11-30T06:43:44.720Z,6.20
2022-11-30T06:46:11.661Z,6.30
2022-11-30T06:48:39.000Z,6.20
2022-11-30T06:51:07.181Z,6.30
2022-11-30T06:53:34.176Z,6.30
2022-11-30T06:56:10.319Z,6.30
2022-11-30T06:58:39.650Z,6.30
2022-11-30T07:01:08.875Z,6.30
2022-11-30T07:03:36.285Z,6.30
2022-11-30T07:06:10.992Z,6.40
2022-11-30T07:08:38.888Z,6.40
2022-11-30T07:11:06.771Z,6.40
2022-11-30T07:13:33.798Z,6.50
2022-11-30T07:16:06.894Z,6.50
2022-11-30T07:18:34.288Z,6.50
2022-11-30T07:21:02.402Z,6.50
2022-11-30T07:23:54.110Z,6.60
2022-11-30T07:26:23.195Z,6.70
2022-11-30T07:28:55.209Z,6.60
2022-11-30T07:31:28.476Z,6.70
2022-11-30T07:33:56.738Z,6.70
2022-11-30T07:36:25.487Z,6.70
2022-11-30T07:38:52.633Z,6.80
2022-11-30T07:41:19.329Z,6.90
2022-11-30T07:43:46.031Z,6.90
2022-11-30T07:46:14.276Z,7.00
2022-11-30T07:48:41.912Z,7.00
2022-11-30T07:51:14.849Z,7.10
2022-11-30T07:53:41.849Z,7.10
2022-11-30T07:56:14.109Z,7.20
2022-11-30T07:58:41.657Z,7.30
2022-11-30T08:01:11.562Z,7.30
2022-11-30T08:03:38.521Z,7.40
2022-11-30T08:06:14.512Z,7.50
2022-11-30T08:08:43.267Z,7.60
2022-11-30T08:11:12.315Z,7.70
2022-11-30T08:13:39.213Z,7.90
2022-11-30T08:16:17.721Z,8.00
2022-11-30T08:18:44.923Z,8.10
2022-11-30T08:21:14.088Z,7.90
2022-11-30T08:23:47.199Z,7.90
2022-11-30T08:26:16.127Z,7.80
2022-11-30T08:28:44.194Z,7.60
2022-11-30T08:31:22.787Z,7.60
2022-11-30T08:33:50.076Z,7.30
2022-11-30T08:36:21.680Z,7.40
2022-11-30T08:38:48.806Z,7.50
2022-11-30T08:41:21.371Z,7.50
2022-11-30T08:43:49.066Z,7.60
2022-11-30T08:49:20.837Z,7.30
2022-11-30T08:54:40.032Z,7.30
2022-11-30T08:57:06.731Z,7.20
2022-11-30T08:59:33.592Z,7.20
2022-11-30T09:02:00.323Z,7.10
2022-11-30T09:04:27.070Z,6.90
2022-11-30T09:06:58.607Z,7.10
2022-11-30T09:09:25.781Z,7.10
2022-11-30T09:11:52.519Z,7.30
2022-11-30T09:14:19.278Z,7.20
2022-11-30T09:16:45.949Z,7.30
2022-11-30T09:19:12.616Z,7.40
2022-11-30T09:21:39.378Z,7.40
2022-11-30T09:24:06.239Z,7.40
2022-11-30T09:26:33.096Z,7.50
2022-11-30T09:29:00.286Z,7.40
2022-11-30T09:31:27.792Z,7.30
2022-11-30T09:33:57.052Z,7.30
2022-11-30T09:36:27.080Z,7.30
2022-11-30T09:38:55.093Z,7.30
2022-11-30T09:41:33.416Z,7.50
2022-11-30T09:44:15.484Z,7.40
2022-11-30T09:46:55.733Z,7.30
2022-11-30T09:49:27.407Z,7.40
2022-11-30T09:51:58.547Z,7.60
2022-11-30T09:54:37.707Z,7.70
2022-11-30T09:57:25.744Z,7.80
2022-11-30T09:59:59.690Z,7.90
2022-11-30T10:02:32.289Z,7.80
2022-11-30T10:05:00.416Z,7.80
2022-11-30T10:08:01.674Z,7.70
2022-11-30T10:10:33.037Z,7.90
2022-11-30T10:13:07.397Z,8.00
2022-11-30T10:16:06.340Z,8.10
2022-11-30T10:18:51.831Z,8.20
2022-11-30T10:21:36.402Z,8.10
2022-11-30T10:24:47.211Z,8.10
2022-11-30T10:27:29.200Z,8.10
2022-11-30T10:29:57.946Z,7.80
2022-11-30T10:32:35.446Z,8.00
2022-11-30T10:35:42.548Z,8.00
2022-11-30T10:38:19.162Z,8.10
2022-11-30T10:41:22.707Z,7.80
2022-11-30T10:44:09.900Z,7.80
2022-11-30T10:46:42.409Z,7.90
2022-11-30T10:49:16.676Z,7.70
2022-11-30T10:51:48.968Z,7.80
2022-11-30T10:54:19.604Z,7.80
2022-11-30T10:56:46.764Z,7.90
2022-11-30T10:59:22.272Z,7.70
2022-11-30T11:01:49.047Z,7.80
2022-11-30T11:04:17.253Z,7.70
2022-11-30T11:06:49.139Z,7.70
2022-11-30T11:09:48.926Z,7.80
2022-11-30T11:12:24.419Z,7.80
2022-11-30T11:15:28.000Z,7.90
2022-11-30T11:18:20.258Z,8.00
2022-11-30T11:20:47.099Z,8.10
2022-11-30T11:23:37.246Z,8.00
2022-11-30T11:26:06.119Z,8.10
2022-11-30T11:28:35.690Z,7.90
2022-11-30T11:31:35.888Z,7.90
2022-11-30T11:34:04.315Z,7.90
2022-11-30T11:36:33.593Z,7.90
2022-11-30T11:39:01.154Z,7.60
2022-11-30T11:41:34.094Z,7.70
2022-11-30T11:44:09.900Z,7.70
2022-11-30T11:46:59.060Z,7.80
2022-11-30T11:49:31.639Z,7.70
2022-11-30T11:52:15.576Z,7.40
2022-11-30T11:55:01.743Z,7.50
2022-11-30T11:57:46.514Z,7.60
2022-11-30T12:00:18.434Z,7.80
2022-11-30T12:02:48.242Z,7.60
2022-11-30T12:05:32.108Z,7.60
2022-11-30T12:08:16.395Z,7.70
2022-11-30T12:11:11.908Z,7.80
2022-11-30T12:13:41.935Z,8.00
2022-11-30T12:16:43.382Z,8.20
2022-11-30T12:19:17.409Z,8.20
2022-11-30T12:22:01.473Z,8.30
2022-11-30T12:24:39.346Z,8.30
2022-11-30T12:27:12.637Z,8.30
2022-11-30T12:30:09.963Z,8.30
2022-11-30T12:32:55.771Z,7.90
2022-11-30T12:35:40.980Z,8.00
2022-11-30T12:38:38.062Z,7.80
2022-11-30T12:41:24.111Z,7.80
2022-11-30T12:44:28.520Z,7.80
2022-11-30T12:47:17.657Z,7.90
2022-11-30T12:50:01.010Z,7.80
2022-11-30T12:52:39.441Z,7.90
2022-11-30T12:55:24.146Z,8.00
2022-11-30T12:58:12.085Z,8.10
2022-11-30T13:01:06.510Z,8.00
2022-11-30T13:03:46.566Z,8.10
2022-11-30T13:06:26.735Z,8.10
2022-11-30T13:09:00.233Z,8.10
2022-11-30T13:11:36.281Z,8.10
2022-11-30T13:14:09.127Z,8.10
2022-11-30T13:16:36.996Z,8.10
2022-11-30T13:19:44.328Z,8.10
2022-11-30T13:22:45.501Z,8.20
2022-11-30T13:26:06.730Z,8.30
2022-11-30T13:28:43.279Z,8.30
2022-11-30T13:31:30.024Z,8.30
2022-11-30T13:33:57.722Z,8.30
2022-11-30T13:36:38.747Z,8.20
2022-11-30T13:39:09.774Z,8.30
2022-11-30T13:41:38.110Z,8.30
2022-11-30T13:44:05.192Z,8.40
2022-11-30T13:46:32.082Z,8.40
2022-11-30T13:49:24.173Z,8.30
2022-11-30T13:52:13.702Z,8.20
2022-11-30T13:54:48.301Z,8.00
2022-11-30T13:57:25.281Z,8.30
2022-11-30T13:59:53.657Z,8.30
2022-11-30T14:02:43.514Z,8.30
2022-11-30T14:05:19.142Z,8.40
2022-11-30T14:08:07.289Z,8.40
2022-11-30T14:10:42.659Z,8.40
2022-11-30T14:13:09.739Z,8.50
2022-11-30T14:15:39.143Z,8.50
2022-11-30T14:18:08.588Z,8.60
2022-11-30T14:20:48.628Z,8.50
2022-11-30T14:23:40.160Z,8.60
2022-11-30T14:26:11.415Z,8.50
2022-11-30T14:28:51.663Z,8.50
2022-11-30T14:31:25.873Z,8.50
2022-11-30T14:34:02.481Z,8.50
2022-11-30T14:36:37.634Z,8.50
2022-11-30T14:39:04.456Z,8.50
2022-11-30T14:41:32.193Z,8.40
2022-11-30T14:44:01.208Z,8.50
2022-11-30T14:46:28.224Z,8.30
2022-11-30T14:49:13.825Z,8.30
2022-11-30T14:51:43.343Z,8.30
2022-11-30T14:54:15.472Z,8.30
2022-11-30T14:56:48.819Z,8.20
2022-11-30T14:59:45.008Z,8.20
2022-11-30T15:02:38.801Z,8.20
2022-11-30T15:05:07.586Z,8.10
2022-11-30T15:07:37.609Z,8.10
2022-11-30T15:10:16.219Z,8.10
2022-11-30T15:12:44.987Z,8.00
2022-11-30T15:15:22.897Z,8.00
2022-11-30T15:17:52.339Z,8.00
2022-11-30T15:20:36.280Z,8.00
2022-11-30T15:23:03.285Z,8.00
2022-11-30T15:25:44.000Z,8.10
2022-11-30T15:28:14.938Z,8.10
2022-11-30T15:30:44.236Z,8.10
2022-11-30T15:33:19.846Z,8.10
2022-11-30T15:36:16.003Z,8.10
2022-11-30T15:38:39.217Z,8.10
2022-11-30T15:41:17.335Z,8.00
2022-11-30T15:43:52.733Z,7.90
2022-11-30T15:46:29.903Z,7.90
2022-11-30T15:49:12.830Z,7.90
2022-11-30T15:51:42.122Z,8.00
2022-11-30T15:54:08.978Z,8.00
2022-11-30T15:56:36.262Z,7.80
2022-11-30T15:59:34.049Z,7.90
2022-11-30T16:02:08.309Z,8.00
2022-11-30T16:05:10.894Z,7.90
2022-11-30T16:08:03.357Z,7.80
2022-11-30T16:10:36.636Z,7.80
2022-11-30T16:13:04.200Z,7.80
2022-11-30T16:15:35.091Z,7.90
2022-11-30T16:18:11.232Z,7.90
2022-11-30T16:20:38.016Z,7.80
2022-11-30T16:23:06.236Z,7.70
2022-11-30T16:25:32.949Z,7.70
2022-11-30T16:27:59.621Z,7.70
2022-11-30T16:30:26.326Z,7.70
2022-11-30T16:32:53.042Z,7.60
2022-11-30T16:35:42.110Z,7.40
2022-11-30T16:38:08.825Z,7.20
2022-11-30T16:40:39.005Z,7.20
2022-11-30T16:43:06.348Z,7.30
2022-11-30T16:45:37.420Z,7.30
2022-11-30T16:48:04.335Z,7.40
2022-11-30T16:50:34.677Z,7.40
2022-11-30T16:53:03.007Z,7.40
2022-11-30T16:55:32.440Z,7.50
2022-11-30T16:57:59.082Z,7.40
2022-11-30T17:00:26.072Z,7.50
2022-11-30T17:03:01.987Z,7.50
2022-11-30T17:05:28.735Z,7.60
2022-11-30T17:07:55.505Z,7.60
2022-11-30T17:10:22.949Z,7.60
2022-11-30T17:12:49.848Z,7.60
2022-11-30T17:15:19.681Z,7.40
2022-11-30T17:17:46.503Z,7.60
2022-11-30T17:20:15.497Z,7.60
2022-11-30T17:22:43.844Z,7.60
2022-11-30T17:25:19.367Z,7.60
2022-11-30T17:27:47.186Z,7.60
2022-11-30T17:30:16.245Z,7.70
2022-11-30T17:32:43.125Z,7.60
2022-11-30T17:35:10.320Z,7.60
2022-11-30T17:37:37.036Z,7.70
2022-11-30T17:40:04.907Z,7.80
2022-11-30T17:42:31.594Z,7.80
2022-11-30T17:44:58.378Z,7.80
2022-11-30T17:47:25.559Z,7.80
2022-11-30T17:49:52.314Z,7.80
2022-11-30T17:52:19.014Z,7.70
2022-11-30T17:54:46.051Z,7.70
2022-11-30T17:57:12.945Z,7.80
2022-11-30T17:59:39.654Z,7.80
2022-11-30T18:02:06.606Z,7.80
2022-11-30T18:04:33.301Z,7.80
2022-11-30T18:07:00.027Z,7.90
2022-11-30T18:09:27.643Z,7.80
2022-11-30T18:11:54.540Z,7.90
2022-11-30T18:14:21.252Z,7.90
2022-11-30T18:16:47.972Z,7.90
2022-11-30T18:19:15.420Z,7.80
2022-11-30T18:21:45.713Z,7.80
2022-11-30T18:24:12.873Z,7.80
2022-11-30T18:26:39.814Z,7.80
2022-11-30T18:29:07.512Z,7.80
2022-11-30T18:31:36.144Z,7.80
2022-11-30T18:34:06.067Z,7.60
2022-11-30T18:36:33.850Z,7.50
2022-11-30T18:39:00.807Z,7.40
2022-11-30T18:41:30.096Z,7.40
2022-11-30T18:43:57.344Z,7.40
2022-11-30T18:46:24.704Z,7.30
2022-11-30T18:48:52.697Z,7.30
2022-11-30T18:51:22.617Z,7.40
2022-11-30T18:53:49.906Z,7.40
2022-11-30T18:56:19.426Z,7.40
2022-11-30T18:58:47.159Z,7.40
2022-11-30T19:01:18.008Z,7.40
2022-11-30T19:03:53.673Z,7.50
2022-11-30T19:06:21.217Z,7.50
2022-11-30T19:08:48.227Z,7.50
2022-11-30T19:11:16.224Z,7.50
2022-11-30T19:13:43.861Z,7.40
2022-11-30T19:16:13.974Z,7.20
2022-11-30T19:18:40.821Z,7.10
2022-11-30T19:21:09.499Z,6.90
2022-11-30T19:23:37.689Z,7.00
2022-11-30T19:26:05.734Z,6.90
2022-11-30T19:28:34.048Z,7.00
2022-11-30T19:31:05.946Z,7.00
2022-11-30T19:33:36.008Z,7.20
2022-11-30T19:36:04.548Z,7.20
2022-11-30T19:38:31.724Z,7.20
2022-11-30T19:40:58.465Z,7.20
2022-11-30T19:43:25.278Z,7.20
2022-11-30T19:45:52.143Z,7.20
2022-11-30T19:48:18.869Z,7.30
2022-11-30T19:50:45.602Z,7.40
2022-11-30T19:53:12.251Z,7.50
2022-11-30T19:55:40.316Z,7.40
2022-11-30T19:58:07.104Z,7.30
2022-11-30T20:00:33.797Z,7.30
2022-11-30T20:03:00.514Z,7.30
2022-11-30T20:05:27.343Z,7.40
2022-11-30T20:07:54.121Z,7.30
2022-11-30T20:10:20.783Z,7.20
2022-11-30T20:12:47.467Z,7.10
2022-11-30T20:15:14.165Z,7.20
2022-11-30T20:17:40.822Z,7.20
2022-11-30T20:20:07.843Z,7.20
2022-11-30T20:22:34.589Z,7.20
2022-11-30T20:25:01.311Z,7.10
2022-11-30T20:27:27.983Z,7.20
2022-11-30T20:29:55.554Z,7.20
2022-11-30T20:32:22.325Z,7.30
2022-11-30T20:34:49.465Z,7.30
2022-11-30T20:37:17.873Z,7.30
2022-11-30T20:39:46.261Z,7.20
2022-11-30T20:42:13.435Z,7.00
2022-11-30T20:44:40.106Z,6.90
2022-11-30T20:47:06.833Z,6.90
2022-11-30T20:49:33.726Z,7.00
2022-11-30T20:52:00.421Z,6.90
2022-11-30T20:54:29.818Z,6.90
2022-11-30T20:56:58.704Z,7.00
2022-11-30T20:59:26.659Z,6.90
2022-11-30T21:01:56.971Z,6.80
2022-11-30T21:04:25.675Z,6.80
2022-11-30T21:06:53.235Z,6.80
2022-11-30T21:09:20.488Z,6.90
2022-11-30T21:11:48.608Z,7.00
2022-11-30T21:14:15.537Z,6.90
2022-11-30T21:16:42.324Z,6.90
2022-11-30T21:19:10.633Z,6.80
2022-11-30T21:21:37.438Z,6.70
2022-11-30T21:24:07.562Z,6.70
2022-11-30T21:26:37.155Z,6.60
2022-11-30T21:29:07.083Z,6.70
2022-11-30T21:31:34.996Z,6.70
2022-11-30T21:34:02.163Z,6.80
2022-11-30T21:36:29.305Z,6.80
2022-11-30T21:39:04.477Z,6.90
2022-11-30T21:41:31.527Z,6.80
2022-11-30T21:43:58.200Z,6.90
2022-11-30T21:46:24.953Z,6.80
2022-11-30T21:48:52.276Z,6.70
2022-11-30T21:51:24.305Z,6.70
2022-11-30T21:53:56.916Z,6.80
2022-11-30T21:56:27.169Z,6.80
2022-11-30T21:58:54.236Z,6.60
2022-11-30T22:01:24.751Z,6.50
2022-11-30T22:03:53.875Z,6.60
2022-11-30T22:06:22.928Z,6.60
2022-11-30T22:08:49.988Z,6.70
2022-11-30T22:11:21.386Z,6.70
2022-11-30T22:13:53.197Z,6.70
2022-11-30T22:16:21.209Z,6.80
2022-11-30T22:18:48.076Z,6.60
2022-11-30T22:21:17.176Z,6.50
2022-11-30T22:23:53.421Z,6.60
2022-11-30T22:26:21.342Z,6.50
2022-11-30T22:28:50.427Z,6.60
2022-11-30T22:31:19.345Z,6.60
2022-11-30T22:33:47.064Z,6.60
2022-11-30T22:36:16.383Z,6.70
2022-11-30T22:38:43.885Z,6.60
2022-11-30T22:41:13.685Z,6.20
2022-11-30T22:43:41.496Z,6.20
2022-11-30T22:46:14.143Z,6.30
2022-11-30T22:48:41.764Z,6.30
2022-11-30T22:51:13.734Z,6.30
2022-11-30T22:53:41.233Z,6.40
2022-11-30T22:56:17.668Z,6.30
2022-11-30T22:58:46.993Z,6.30
2022-11-30T23:01:19.334Z,6.40
2022-11-30T23:03:47.745Z,6.50
2022-11-30T23:06:16.590Z,6.50
2022-11-30T23:08:44.693Z,6.60
2022-11-30T23:11:15.252Z,6.50
2022-11-30T23:13:42.966Z,6.50
2022-11-30T23:16:11.863Z,6.60
2022-11-30T23:18:41.393Z,6.50
2022-11-30T23:21:26.762Z,6.40
2022-11-30T23:23:55.457Z,6.50
2022-11-30T23:26:27.628Z,6.50
2022-11-30T23:28:55.459Z,6.40
2022-11-30T23:31:34.297Z,6.40
2022-11-30T23:34:11.351Z,6.50
2022-11-30T23:36:38.042Z,6.50
2022-11-30T23:39:09.119Z,6.50
2022-11-30T23:41:36.136Z,6.50
2022-11-30T23:44:03.452Z,6.50
2022-11-30T23:46:30.886Z,6.50
2022-11-30T23:48:57.775Z,6.50
2022-11-30T23:51:24.930Z,6.60
2022-11-30T23:53:51.742Z,6.60
2022-11-30T23:56:20.353Z,6.70
2022-11-30T23:58:47.185Z,6.60
